Home > Products > Valid Products > TAF

000
FTUS42 KCAE 230231 AAA
TAFDNL
TAF AMD
KDNL 230231Z 2303/2324 03005KT P6SM SKC
     FM231500 08010KT P6SM SKC=



000
FTUS42 KCAE 230231 AAA
TAFCUB
TAF AMD
KCUB 230231Z 2303/2324 00000KT P6SM SKC
     FM231500 09006KT P6SM SKC=



000
FTUS42 KCAE 230231 AAA
TAFOGB
TAF AMD
KOGB 230231Z 2303/2324 00000KT P6SM SKC
     FM231400 08010KT P6SM SKC=



000
FTUS42 KCAE 230231 AAA
TAFCAE
TAF AMD
KCAE 230231Z 2303/2324 VRB03KT P6SM SKC
     FM231400 08010KT P6SM SKC=



000
FTUS42 KCAE 230231 AAA
TAFAGS
TAF AMD
KAGS 230231Z 2303/2324 00000KT P6SM SKC
     FM231400 08010KT P6SM SKC=



000
FTUS42 KCAE 230231 AAA
TAFDNL
TAF AMD
KDNL 230231Z 2303/2324 03005KT P6SM SKC
     FM231500 08010KT P6SM SKC=



000
FTUS42 KCAE 222320
TAFCAE
TAF
KCAE 222320Z 2300/2324 VRB03KT P6SM SKC
     FM231500 10008KT P6SM SKC=



000
FTUS42 KCAE 222320
TAFOGB
TAF
KOGB 222320Z 2300/2324 VRB03KT P6SM SKC
     FM231500 09008KT P6SM SKC=



000
FTUS42 KCAE 222320
TAFAGS
TAF
KAGS 222320Z 2300/2324 VRB02KT P6SM SKC
     FM231500 10009KT P6SM SKC=



000
FTUS42 KCAE 222320
TAFAGS
TAF
KAGS 222320Z 2300/2324 VRB02KT P6SM SKC
     FM231500 10009KT P6SM SKC=



000
FTUS42 KCAE 222320
TAFCAE
TAF
KCAE 222320Z 2300/2324 VRB03KT P6SM SKC
     FM231500 10008KT P6SM SKC=



000
FTUS42 KCAE 222320
TAFDNL
TAF
KDNL 222320Z 2300/2324 VRB04KT P6SM SKC
     FM231500 10011KT P6SM SKC=



000
FTUS42 KCAE 222320
TAFDNL
TAF
KDNL 222320Z 2300/2324 VRB04KT P6SM SKC
     FM231500 10011KT P6SM SKC=



000
FTUS42 KCAE 222320
TAFOGB
TAF
KOGB 222320Z 2300/2324 VRB03KT P6SM SKC
     FM231500 09008KT P6SM SKC=



000
FTUS42 KCAE 222320
TAFCUB
TAF
KCUB 222320Z 2300/2324 VRB03KT P6SM SKC
     FM231600 10006KT P6SM SKC=



000
FTUS42 KCAE 222320
TAFCUB
TAF
KCUB 222320Z 2300/2324 VRB03KT P6SM SKC
     FM231600 10006KT P6SM SKC=



000
FTUS42 KCAE 222051 AAA
TAFCAE
TAF AMD
KCAE 222051Z 2221/2318 VRB03KT P6SM FEW060
     FM231600 08008KT P6SM SKC=



000
FTUS42 KCAE 222051 AAA
TAFAGS
TAF AMD
KAGS 222051Z 2221/2318 VRB02KT P6SM FEW050
     FM231500 09009KT P6SM SKC=



000
FTUS42 KCAE 222051 AAA
TAFDNL
TAF AMD
KDNL 222051Z 2221/2318 VRB04KT P6SM FEW050
     FM231500 08012KT P6SM SKC=



000
FTUS42 KCAE 222051 AAA
TAFCUB
TAF AMD
KCUB 222051Z 2221/2318 VRB03KT P6SM FEW060
     FM231700 09006KT P6SM SKC=



000
FTUS42 KCAE 222051 AAA
TAFOGB
TAF AMD
KOGB 222051Z 2221/2318 VRB03KT P6SM FEW060
     FM231700 09010KT P6SM SKC=



000
FTUS42 KCAE 221739
TAFOGB
TAF
KOGB 221739Z 2218/2318 03007KT P6SM SCT060
     FM230000 VRB03KT P6SM SKC
     FM231700 09010KT P6SM SKC=



000
FTUS42 KCAE 221739
TAFCUB
TAF
KCUB 221739Z 2218/2318 VRB04KT P6SM FEW060
     FM230000 VRB03KT P6SM SKC
     FM231700 09006KT P6SM SKC=



000
FTUS42 KCAE 221739
TAFAGS
TAF
KAGS 221739Z 2218/2318 03006KT P6SM SCT050
     FM230000 VRB03KT P6SM SKC
     FM231500 09009KT P6SM SKC=



000
FTUS42 KCAE 221739
TAFCUB
TAF
KCUB 221739Z 2218/2318 VRB04KT P6SM FEW060
     FM230000 VRB03KT P6SM SKC
     FM231700 09006KT P6SM SKC=



000
FTUS42 KCAE 221739
TAFDNL
TAF
KDNL 221739Z 2218/2318 02007KT P6SM SCT050
     FM230000 VRB03KT P6SM SKC
     FM231500 08012KT P6SM SKC=



000
FTUS42 KCAE 221739
TAFCAE
TAF
KCAE 221739Z 2218/2318 02006KT P6SM FEW060
     FM230000 VRB03KT P6SM SKC
     FM231600 08008KT P6SM SKC=



000
FTUS42 KCAE 221739
TAFOGB
TAF
KOGB 221739Z 2218/2318 03007KT P6SM SCT060
     FM230000 VRB03KT P6SM SKC
     FM231700 09010KT P6SM SKC=



000
FTUS42 KCAE 221739
TAFCAE
TAF
KCAE 221739Z 2218/2318 02006KT P6SM FEW060
     FM230000 VRB03KT P6SM SKC
     FM231600 08008KT P6SM SKC=



000
FTUS42 KCAE 221739
TAFDNL
TAF
KDNL 221739Z 2218/2318 02007KT P6SM SCT050
     FM230000 VRB03KT P6SM SKC
     FM231500 08012KT P6SM SKC=



000
FTUS42 KCAE 221739
TAFAGS
TAF
KAGS 221739Z 2218/2318 03006KT P6SM SCT050
     FM230000 VRB03KT P6SM SKC
     FM231500 09009KT P6SM SKC=



000
FTUS42 KCAE 221434 CCA
TAFAGS
TAF COR
KAGS 221434Z 2215/2312 02010KT P6SM BKN040
     FM222000 02006KT P6SM SCT040
     FM230000 VRB03KT P6SM SKC=



000
FTUS42 KCAE 221434 AAA
TAFDNL
TAF AMD
KDNL 221434Z 2215/2312 03010KT P6SM BKN040
     FM222000 02006KT P6SM SCT040
     FM230000 VRB03KT P6SM SKC=



000
FTUS42 KCAE 221433 AAA
TAFOGB
TAF AMD
KOGB 221433Z 2215/2312 03010G19KT P6SM BKN050
     FM222000 02008KT P6SM SCT050
     FM230000 VRB03KT P6SM SKC=



000
FTUS42 KCAE 221433 AAA
TAFAGS
TAF AMD
KAGS 221433Z 2215/2312 02007KT P6SM BKN040
     FM222000 02006KT P6SM SCT040
     FM230000 VRB03KT P6SM SKC=



000
FTUS42 KCAE 221432 AAA
TAFCUB
TAF AMD
KCUB 221432Z 2215/2312 02008KT P6SM SCT050
     FM230000 VRB03KT P6SM SKC=



000
FTUS42 KCAE 221431 AAB
TAFCAE
TAF AMD
KCAE 221431Z 2215/2312 01010G18KT P6SM SCT050
     FM221800 02010KT P6SM SCT050
     FM230000 VRB03KT P6SM SKC=



000
FTUS42 KCAE 221146 AAA
TAFCAE
TAF AMD
KCAE 221146Z 2212/2312 04010G18KT P6SM BKN040
     FM221800 02010KT P6SM SCT040
     FM230000 VRB03KT P6SM SKC=



000
FTUS42 KCAE 221146 AAA
TAFCAE
TAF AMD
KCAE 221146Z 2212/2312 04010G18KT P6SM BKN040
     FM221800 02010KT P6SM SCT040
     FM230000 VRB03KT P6SM SKC=



000
FTUS42 KCAE 221132
TAFCAE
TAF
KCAE 221132Z 2212/2312 04010KT P6SM BKN040
     FM221800 02010KT P6SM SCT040
     FM230000 VRB03KT P6SM SKC=



000
FTUS42 KCAE 221132
TAFCUB
TAF
KCUB 221132Z 2212/2312 04008KT P6SM BKN040
     FM221800 02008KT P6SM SCT040
     FM230000 VRB03KT P6SM SKC=



000
FTUS42 KCAE 221132
TAFOGB
TAF
KOGB 221132Z 2212/2312 05010KT P6SM BKN040
     FM222000 04008KT P6SM SCT040
     FM230000 VRB03KT P6SM SKC=



000
FTUS42 KCAE 221132
TAFOGB
TAF
KOGB 221132Z 2212/2312 05010KT P6SM BKN040
     FM222000 04008KT P6SM SCT040
     FM230000 VRB03KT P6SM SKC=



000
FTUS42 KCAE 221132
TAFAGS
TAF
KAGS 221132Z 2212/2312 35007KT P6SM BKN040
     FM222000 02006KT P6SM SCT040
     FM230000 VRB03KT P6SM SKC=



000
FTUS42 KCAE 221132
TAFCAE
TAF
KCAE 221132Z 2212/2312 04010KT P6SM BKN040
     FM221800 02010KT P6SM SCT040
     FM230000 VRB03KT P6SM SKC=



000
FTUS42 KCAE 221132
TAFCUB
TAF
KCUB 221132Z 2212/2312 04008KT P6SM BKN040
     FM221800 02008KT P6SM SCT040
     FM230000 VRB03KT P6SM SKC=



000
FTUS42 KCAE 221132
TAFDNL
TAF
KDNL 221132Z 2212/2312 01010KT P6SM BKN040
     FM222000 02006KT P6SM SCT040
     FM230000 VRB03KT P6SM SKC=



000
FTUS42 KCAE 221132
TAFAGS
TAF
KAGS 221132Z 2212/2312 35007KT P6SM BKN040
     FM222000 02006KT P6SM SCT040
     FM230000 VRB03KT P6SM SKC=



000
FTUS42 KCAE 221132
TAFDNL
TAF
KDNL 221132Z 2212/2312 01010KT P6SM BKN040
     FM222000 02006KT P6SM SCT040
     FM230000 VRB03KT P6SM SKC=



000
FTUS42 KCAE 221037 AAB
TAFDNL
TAF AMD
KDNL 221037Z 2211/2306 32008KT P6SM BKN150
     FM221400 36010KT P6SM SCT150
     FM222000 36005KT P6SM SKC=



000
FTUS42 KCAE 221036 AAB
TAFAGS
TAF AMD
KAGS 221036Z 2211/2306 32008KT P6SM BKN150
     FM221400 36008KT P6SM SCT150
     FM222000 02005KT P6SM SKC=



000
FTUS42 KCAE 221025 AAB
TAFCUB
TAF AMD
KCUB 221025Z 2210/2306 04009KT P6SM BKN040
     FM221600 02008KT P6SM SKC=



000
FTUS42 KCAE 221025 AAB
TAFCUB
TAF AMD
KCUB 221025Z 2210/2306 04009KT P6SM BKN040
     FM221600 02008KT P6SM SKC=



000
FTUS42 KCAE 221024 AAB
TAFCAE
TAF AMD
KCAE 221024Z 2210/2306 04010KT P6SM BKN040
     FM221600 02008KT P6SM SKC=



000
FTUS42 KCAE 221024 AAB
TAFCAE
TAF AMD
KCAE 221024Z 2210/2306 04010KT P6SM BKN040
     FM221600 02008KT P6SM SKC=



000
FTUS42 KCAE 220834 AAA
TAFCAE
TAF AMD
KCAE 220834Z 2209/2306 36008KT P6SM SCT040
     FM221600 02008KT P6SM SKC=



000
FTUS42 KCAE 220834 AAA
TAFDNL
TAF AMD
KDNL 220834Z 2209/2306 32008KT P6SM SCT040
     FM221000 36010KT P6SM SCT040
     FM222000 36005KT P6SM SKC=



000
FTUS42 KCAE 220834 AAA
TAFCUB
TAF AMD
KCUB 220834Z 2209/2306 36008KT P6SM SCT040
     FM221600 02008KT P6SM SKC=



000
FTUS42 KCAE 220834 AAA
TAFAGS
TAF AMD
KAGS 220834Z 2209/2306 32008KT P6SM SCT040
     FM221000 36008KT P6SM SCT040
     FM222000 02005KT P6SM SKC=



000
FTUS42 KCAE 220834 AAA
TAFOGB
TAF AMD
KOGB 220834Z 2209/2306 34008KT P6SM BKN035
     FM221200 02012KT P6SM SCT040
     FM221900 03006KT P6SM SKC=



000
FTUS42 KCAE 220520
TAFCUB
TAF
KCUB 220520Z 2206/2306 29010KT P6SM SKC
     FM220800 36010KT P6SM SCT040
     FM221600 02010KT P6SM SCT040=



000
FTUS42 KCAE 220520
TAFOGB
TAF
KOGB 220520Z 2206/2306 30007KT P6SM SKC
     FM220800 34010KT P6SM SCT040
     FM221200 02012KT P6SM SCT040
     FM221900 03006KT P6SM SKC=



000
FTUS42 KCAE 220520
TAFOGB
TAF
KOGB 220520Z 2206/2306 30007KT P6SM SKC
     FM220800 34010KT P6SM SCT040
     FM221200 02012KT P6SM SCT040
     FM221900 03006KT P6SM SKC=



000
FTUS42 KCAE 220520
TAFAGS
TAF
KAGS 220520Z 2206/2306 32010KT P6SM SKC
     FM221000 36010KT P6SM SCT040
     FM222000 02005KT P6SM SKC=



000
FTUS42 KCAE 220520
TAFCAE
TAF
KCAE 220520Z 2206/2306 29010KT P6SM SKC
     FM220800 36010KT P6SM SCT040
     FM221600 02010KT P6SM SCT040=



000
FTUS42 KCAE 220520
TAFAGS
TAF
KAGS 220520Z 2206/2306 32010KT P6SM SKC
     FM221000 36010KT P6SM SCT040
     FM222000 02005KT P6SM SKC=



000
FTUS42 KCAE 220520
TAFCAE
TAF
KCAE 220520Z 2206/2306 29010KT P6SM SKC
     FM220800 36010KT P6SM SCT040
     FM221600 02010KT P6SM SCT040=



000
FTUS42 KCAE 220520
TAFDNL
TAF
KDNL 220520Z 2206/2306 32010KT P6SM SKC
     FM221000 36010KT P6SM SCT040
     FM222000 36005KT P6SM SKC=



000
FTUS42 KCAE 220520
TAFCUB
TAF
KCUB 220520Z 2206/2306 29010KT P6SM SKC
     FM220800 36010KT P6SM SCT040
     FM221600 02010KT P6SM SCT040=



000
FTUS42 KCAE 220520
TAFDNL
TAF
KDNL 220520Z 2206/2306 32010KT P6SM SKC
     FM221000 36010KT P6SM SCT040
     FM222000 36005KT P6SM SKC=



000
FTUS42 KCAE 220230 AAA
TAFCAE
TAF AMD
KCAE 220230Z 2203/2224 27012KT P6SM SKC
     FM220600 36010KT P6SM BKN040
     FM221600 02010KT P6SM SCT040=



000
FTUS42 KCAE 220230 AAA
TAFAGS
TAF AMD
KAGS 220230Z 2203/2224 29010KT P6SM SKC
     FM221000 36010KT P6SM BKN040
     FM222000 02005KT P6SM SKC=



000
FTUS42 KCAE 220230 AAA
TAFOGB
TAF AMD
KOGB 220230Z 2203/2224 28008KT P6SM SKC
     FM220700 34010KT P6SM BKN040
     FM221200 02012KT P6SM BKN040
     FM221900 03006KT P6SM SKC=



000
FTUS42 KCAE 220230 AAA
TAFCUB
TAF AMD
KCUB 220230Z 2203/2224 27010KT P6SM SKC
     FM220600 36010KT P6SM BKN040
     FM221600 02008KT P6SM SCT040=



000
FTUS42 KCAE 220230 AAA
TAFDNL
TAF AMD
KDNL 220230Z 2203/2224 29010KT P6SM SKC
     FM221000 36010KT P6SM BKN040
     FM222000 36005KT P6SM SKC=



000
FTUS42 KCAE 212321
TAFOGB
TAF
KOGB 212321Z 2200/2224 27014KT P6SM SKC
     FM220100 30008KT P6SM SKC
     FM220700 36012KT P6SM FEW250=



000
FTUS42 KCAE 212321
TAFCUB
TAF
KCUB 212321Z 2200/2224 28012KT P6SM FEW060
     FM220300 30008KT P6SM SKC
     FM220600 36010KT P6SM SKC
     FM221800 01005KT P6SM SKC=



000
FTUS42 KCAE 212321
TAFCAE
TAF
KCAE 212321Z 2200/2224 28014KT P6SM FEW060
     FM220300 30010KT P6SM SKC
     FM220600 36010KT P6SM SKC=



000
FTUS42 KCAE 212321
TAFDNL
TAF
KDNL 212321Z 2200/2224 29012KT P6SM SKC
     FM220800 36012KT P6SM SKC=



000
FTUS42 KCAE 212321
TAFAGS
TAF
KAGS 212321Z 2200/2224 30012KT P6SM SKC
     FM220800 36010KT P6SM SKC=



000
FTUS42 KCAE 212321
TAFDNL
TAF
KDNL 212321Z 2200/2224 29012KT P6SM SKC
     FM220800 36012KT P6SM SKC=



000
FTUS42 KCAE 212321
TAFOGB
TAF
KOGB 212321Z 2200/2224 27014KT P6SM SKC
     FM220100 30008KT P6SM SKC
     FM220700 36012KT P6SM FEW250=



000
FTUS42 KCAE 212321
TAFAGS
TAF
KAGS 212321Z 2200/2224 30012KT P6SM SKC
     FM220800 36010KT P6SM SKC=



000
FTUS42 KCAE 212321
TAFCUB
TAF
KCUB 212321Z 2200/2224 28012KT P6SM FEW060
     FM220300 30008KT P6SM SKC
     FM220600 36010KT P6SM SKC
     FM221800 01005KT P6SM SKC=



000
FTUS42 KCAE 212321
TAFCAE
TAF
KCAE 212321Z 2200/2224 28014KT P6SM FEW060
     FM220300 30010KT P6SM SKC
     FM220600 36010KT P6SM SKC=



000
FTUS42 KCAE 212052 AAA
TAFOGB
TAF AMD
KOGB 212052Z 2121/2218 29012KT P6SM SKC
     FM220000 30008KT P6SM SKC
     FM220500 35010KT P6SM FEW250=



000
FTUS42 KCAE 212052 AAA
TAFCAE
TAF AMD
KCAE 212052Z 2121/2218 28013G20KT P6SM FEW060
     FM220100 31010KT P6SM SKC
     FM220700 36010KT P6SM SKC=



000
FTUS42 KCAE 212052 AAA
TAFDNL
TAF AMD
KDNL 212052Z 2121/2218 28008G18KT P6SM SKC
     FM220300 30010KT P6SM SKC
     FM221200 03012KT P6SM SKC=



000
FTUS42 KCAE 212052 AAA
TAFDNL
TAF AMD

-=



000
FTUS42 KCAE 212052 AAA
TAFCUB
TAF AMD
KCUB 212052Z 2121/2218 28010G18KT P6SM FEW060
     FM220000 30008KT P6SM SKC
     FM220800 36010KT P6SM SKC=



000
FTUS42 KCAE 212052 AAA
TAFAGS
TAF AMD
KAGS 212052Z 2121/2218 28010G20KT P6SM SKC
     FM220000 30010KT P6SM SKC
     FM220800 01008KT P6SM SKC=



000
FTUS42 KCAE 212052 AAA
TAFCAE
TAF AMD
KCAE 212052Z 2121/2218 28013G20KT P6SM FEW060
     FM220100 31010KT P6SM SKC
     FM220700 36010KT P6SM SKC=



000
FTUS42 KCAE 212052 AAA
TAFOGB
TAF AMD
KOGB 212052Z 2121/2218 29012KT P6SM SKC
     FM220000 30008KT P6SM SKC
     FM220500 35010KT P6SM FEW250=



000
FTUS42 KCAE 212052 AAA
TAFDNL
TAF AMD

-=



000
FTUS42 KCAE 212052 AAA
TAFCUB
TAF AMD
KCUB 212052Z 2121/2218 28010G18KT P6SM FEW060
     FM220000 30008KT P6SM SKC
     FM220800 36010KT P6SM SKC=



000
FTUS42 KCAE 212052 AAA
TAFDNL
TAF AMD
KDNL 212052Z 2121/2218 28008G18KT P6SM SKC
     FM220300 30010KT P6SM SKC
     FM221200 03012KT P6SM SKC=



000
FTUS42 KCAE 212052 AAA
TAFAGS
TAF AMD
KAGS 212052Z 2121/2218 28010G20KT P6SM SKC
     FM220000 30010KT P6SM SKC
     FM220800 01008KT P6SM SKC=



000
FTUS42 KCAE 211727
TAFDNL
TAF
KDNL 211727Z 2118/2218 29012G19KT P6SM FEW040
     FM220000 34009KT P6SM SKC=



000
FTUS42 KCAE 211727
TAFOGB
TAF
KOGB 211727Z 2118/2218 29014G22KT P6SM BKN040
     FM220000 30008KT P6SM SKC
     FM220500 35009KT P6SM FEW250=



000
FTUS42 KCAE 211727
TAFCAE
TAF
KCAE 211727Z 2118/2218 28013G20KT P6SM BKN040
     FM220000 31010KT P6SM FEW040
     FM220700 36008KT P6SM SKC=



000
FTUS42 KCAE 211727
TAFCUB
TAF
KCUB 211727Z 2118/2218 30010G17KT P6SM BKN040
     FM220000 30006KT P6SM FEW040
     FM220800 34007KT P6SM SKC=



000
FTUS42 KCAE 211727
TAFAGS
TAF
KAGS 211727Z 2118/2218 29015G23KT P6SM FEW040
     FM220000 30010KT P6SM SKC
     FM220800 01007KT P6SM SKC=



000
FTUS42 KCAE 211512 AAA
TAFAGS
TAF AMD
KAGS 211512Z 2115/2212 29015G23KT P6SM FEW040
     FM220000 30010KT P6SM SKC
     FM220800 01007KT P6SM SKC=



000
FTUS42 KCAE 211512 AAA
TAFDNL
TAF AMD
KDNL 211512Z 2115/2212 29012G19KT P6SM FEW040
     FM220000 34009KT P6SM SKC=



000
FTUS42 KCAE 211512 AAA
TAFCAE
TAF AMD
KCAE 211512Z 2115/2212 27013G20KT P6SM SCT040
     FM220000 31010KT P6SM SCT250
     FM220700 36010KT P6SM FEW250=



000
FTUS42 KCAE 211512 AAA
TAFOGB
TAF AMD
KOGB 211512Z 2115/2212 28014G22KT P6SM SCT040
     FM220000 27008KT P6SM SKC
     FM220500 35009KT P6SM FEW250=



000
FTUS42 KCAE 211512 AAA
TAFCUB
TAF AMD
KCUB 211512Z 2115/2212 28010G17KT P6SM SCT040
     FM220000 29006KT P6SM SCT250
     FM220800 34007KT P6SM FEW250=



000
FTUS42 KCAE 211512 AAA
TAFDNL
TAF AMD
KDNL 211512Z 2115/2212 29012G19KT P6SM FEW040
     FM220000 34009KT P6SM SKC=



000
FTUS42 KCAE 211512 AAA
TAFAGS
TAF AMD
KAGS 211512Z 2115/2212 29015G23KT P6SM FEW040
     FM220000 30010KT P6SM SKC
     FM220800 01007KT P6SM SKC=



000
FTUS42 KCAE 211512 AAA
TAFCAE
TAF AMD
KCAE 211512Z 2115/2212 27013G20KT P6SM SCT040
     FM220000 31010KT P6SM SCT250
     FM220700 36010KT P6SM FEW250=



000
FTUS42 KCAE 211512 AAA
TAFOGB
TAF AMD
KOGB 211512Z 2115/2212 28014G22KT P6SM SCT040
     FM220000 27008KT P6SM SKC
     FM220500 35009KT P6SM FEW250=



000
FTUS42 KCAE 211512 AAA
TAFCUB
TAF AMD
KCUB 211512Z 2115/2212 28010G17KT P6SM SCT040
     FM220000 29006KT P6SM SCT250
     FM220800 34007KT P6SM FEW250=



000
FTUS42 KCAE 211129
TAFOGB
TAF
KOGB 211129Z 2112/2212 VRB03KT P6SM FEW150
     FM211400 26009KT P6SM SCT150
     FM211600 28014G22KT P6SM SKC
     FM212300 27008KT P6SM SKC
     FM220500 35009KT P6SM FEW250=



000
FTUS42 KCAE 211129
TAFCAE
TAF
KCAE 211129Z 2112/2212 VRB04KT P6SM SCT060 BKN150
     FM211400 27008KT P6SM BKN250
     FM211600 28013G20KT P6SM SCT250
     FM220000 31010KT P6SM SCT250
     FM220700 36010KT P6SM FEW250=



000
FTUS42 KCAE 211129
TAFDNL
TAF
KDNL 211129Z 2112/2212 28008KT P6SM SCT250
     FM211600 29012G19KT P6SM SCT250
     FM220500 34009KT P6SM SKC=



000
FTUS42 KCAE 211129
TAFCUB
TAF
KCUB 211129Z 2112/2212 VRB03KT P6SM SCT060 BKN150
     FM211400 26008KT P6SM SCT250
     FM211600 28010G17KT P6SM FEW250
     FM220300 29006KT P6SM SCT250
     FM220800 34007KT P6SM FEW250=



000
FTUS42 KCAE 211129
TAFAGS
TAF
KAGS 211129Z 2112/2212 VRB03KT P6SM SCT250
     FM211400 27006KT P6SM SCT250
     FM211600 28015G23KT P6SM SKC
     FM220300 30010KT P6SM SKC
     FM220800 01007KT P6SM SKC=



000
FTUS42 KCAE 211129
TAFAGS
TAF
KAGS 211129Z 2112/2212 VRB03KT P6SM SCT250
     FM211400 27006KT P6SM SCT250
     FM211600 28015G23KT P6SM SKC
     FM220300 30010KT P6SM SKC
     FM220800 01007KT P6SM SKC=



000
FTUS42 KCAE 211129
TAFOGB
TAF
KOGB 211129Z 2112/2212 VRB03KT P6SM FEW150
     FM211400 26009KT P6SM SCT150
     FM211600 28014G22KT P6SM SKC
     FM212300 27008KT P6SM SKC
     FM220500 35009KT P6SM FEW250=



000
FTUS42 KCAE 211129
TAFCAE
TAF
KCAE 211129Z 2112/2212 VRB04KT P6SM SCT060 BKN150
     FM211400 27008KT P6SM BKN250
     FM211600 28013G20KT P6SM SCT250
     FM220000 31010KT P6SM SCT250
     FM220700 36010KT P6SM FEW250=



000
FTUS42 KCAE 211129
TAFCUB
TAF
KCUB 211129Z 2112/2212 VRB03KT P6SM SCT060 BKN150
     FM211400 26008KT P6SM SCT250
     FM211600 28010G17KT P6SM FEW250
     FM220300 29006KT P6SM SCT250
     FM220800 34007KT P6SM FEW250=



000
FTUS42 KCAE 211129
TAFDNL
TAF
KDNL 211129Z 2112/2212 28008KT P6SM SCT250
     FM211600 29012G19KT P6SM SCT250
     FM220500 34009KT P6SM SKC=



000
FTUS42 KCAE 210852 AAA
TAFCUB
TAF AMD
KCUB 210852Z 2109/2206 00000KT P6SM SCT150
     FM211300 26008KT P6SM SCT250
     FM211600 28010G17KT P6SM FEW250
     FM220300 29006KT P6SM SCT250=



000
FTUS42 KCAE 210852 AAA
TAFDNL
TAF AMD
KDNL 210852Z 2109/2206 VRB03KT P6SM FEW050 SCT150
     FM211200 28008KT P6SM SCT250
     FM211600 29012G21KT P6SM SKC
     FM220500 31009KT P6SM SKC=



000
FTUS42 KCAE 210852 AAA
TAFCAE
TAF AMD
KCAE 210852Z 2109/2206 27004KT P6SM SCT150
     FM211300 27008KT P6SM SCT250
     FM211600 28013G20KT P6SM SCT250
     FM220000 31010KT P6SM SCT250=



000
FTUS42 KCAE 210852 AAA
TAFAGS
TAF AMD
KAGS 210852Z 2109/2206 VRB03KT 6SM BR FEW050 SCT150
      TEMPO 2109/2111 1SM BR
     FM211100 27006KT P6SM SCT250
     FM211600 28015G23KT P6SM SKC
     FM220300 30010KT P6SM SKC=



000
FTUS42 KCAE 210852 AAA
TAFOGB
TAF AMD
KOGB 210852Z 2109/2206 VRB03KT P6SM FEW150
     FM211300 26009KT P6SM SCT250
     FM211600 28014G22KT P6SM SKC
     FM212300 27008KT P6SM SKC
     FM220300 33010KT P6SM FEW250=



000
FTUS42 KCAE 210852 AAA
TAFCUB
TAF AMD
KCUB 210852Z 2109/2206 00000KT P6SM SCT150
     FM211300 26008KT P6SM SCT250
     FM211600 28010G17KT P6SM FEW250
     FM220300 29006KT P6SM SCT250=



000
FTUS42 KCAE 210852 AAA
TAFDNL
TAF AMD
KDNL 210852Z 2109/2206 VRB03KT P6SM FEW050 SCT150
     FM211200 28008KT P6SM SCT250
     FM211600 29012G21KT P6SM SKC
     FM220500 31009KT P6SM SKC=



000
FTUS42 KCAE 210852 AAA
TAFOGB
TAF AMD
KOGB 210852Z 2109/2206 VRB03KT P6SM FEW150
     FM211300 26009KT P6SM SCT250
     FM211600 28014G22KT P6SM SKC
     FM212300 27008KT P6SM SKC
     FM220300 33010KT P6SM FEW250=



000
FTUS42 KCAE 210852 AAA
TAFAGS
TAF AMD
KAGS 210852Z 2109/2206 VRB03KT 6SM BR FEW050 SCT150
      TEMPO 2109/2111 1SM BR
     FM211100 27006KT P6SM SCT250
     FM211600 28015G23KT P6SM SKC
     FM220300 30010KT P6SM SKC=



000
FTUS42 KCAE 210852 AAA
TAFCAE
TAF AMD
KCAE 210852Z 2109/2206 27004KT P6SM SCT150
     FM211300 27008KT P6SM SCT250
     FM211600 28013G20KT P6SM SCT250
     FM220000 31010KT P6SM SCT250=



000
FTUS42 KCAE 210556 CCA
TAFAGS
TAF COR
KAGS 210556Z 2106/2206 VRB03KT 5SM BR FEW050 SCT150
      TEMPO 2106/2110 1SM BR
     FM211100 27006KT P6SM SCT250
     FM211600 28015G23KT P6SM SKC
     FM220300 30010KT P6SM SKC=



000
FTUS42 KCAE 210556 CCA
TAFAGS
TAF COR
KAGS 210556Z 2106/2206 VRB03KT 5SM BR FEW050 SCT150
      TEMPO 2106/2110 1SM BR
     FM211100 27006KT P6SM SCT250
     FM211600 28015G23KT P6SM SKC
     FM220300 30010KT P6SM SKC=



000
FTUS42 KCAE 210521
TAFOGB
TAF
KOGB 210521Z 2106/2206 VRB03KT P6SM SKC
      TEMPO 2107/2111 4SM BR BKN012
     FM211300 26009KT P6SM SCT250
     FM211600 28014G22KT P6SM SKC
     FM212300 27008KT P6SM SKC
     FM220300 33010KT P6SM FEW250=



000
FTUS42 KCAE 210521
TAFCUB
TAF
KCUB 210521Z 2106/2206 00000KT P6SM SCT060 BKN150
     FM211300 26008KT P6SM SCT250
     FM211600 28010G17KT P6SM FEW250
     FM220300 29006KT P6SM SCT250=



000
FTUS42 KCAE 210521
TAFDNL
TAF
KDNL 210521Z 2106/2206 VRB04KT P6SM FEW050 BKN150
     FM211200 28008KT P6SM SCT250
     FM211600 29012G21KT P6SM SKC
     FM220500 31009KT P6SM SKC=



000
FTUS42 KCAE 210521
TAFCAE
TAF
KCAE 210521Z 2106/2206 VRB03KT P6SM SCT060 BKN150
     FM211300 27008KT P6SM SCT250
     FM211600 28012G20KT P6SM FEW250
     FM220000 31010KT P6SM SCT250=



000
FTUS42 KCAE 210521
TAFAGS
TAF
KAGS 210521Z 2106/2206 VRB03KT P6SM FEW050 BKN150
      TEMPO 2107/2111 3SM BR
     FM211100 27006KT P6SM SCT250
     FM211600 28015G23KT P6SM SKC
     FM220300 30010KT P6SM SKC=



000
FTUS42 KCAE 210521
TAFOGB
TAF
KOGB 210521Z 2106/2206 VRB03KT P6SM SKC
      TEMPO 2107/2111 4SM BR BKN012
     FM211300 26009KT P6SM SCT250
     FM211600 28014G22KT P6SM SKC
     FM212300 27008KT P6SM SKC
     FM220300 33010KT P6SM FEW250=



000
FTUS42 KCAE 210521
TAFCUB
TAF
KCUB 210521Z 2106/2206 00000KT P6SM SCT060 BKN150
     FM211300 26008KT P6SM SCT250
     FM211600 28010G17KT P6SM FEW250
     FM220300 29006KT P6SM SCT250=



000
FTUS42 KCAE 210521
TAFDNL
TAF
KDNL 210521Z 2106/2206 VRB04KT P6SM FEW050 BKN150
     FM211200 28008KT P6SM SCT250
     FM211600 29012G21KT P6SM SKC
     FM220500 31009KT P6SM SKC=



000
FTUS42 KCAE 210521
TAFAGS
TAF
KAGS 210521Z 2106/2206 VRB03KT P6SM FEW050 BKN150
      TEMPO 2107/2111 3SM BR
     FM211100 27006KT P6SM SCT250
     FM211600 28015G23KT P6SM SKC
     FM220300 30010KT P6SM SKC=



000
FTUS42 KCAE 210521
TAFCAE
TAF
KCAE 210521Z 2106/2206 VRB03KT P6SM SCT060 BKN150
     FM211300 27008KT P6SM SCT250
     FM211600 28012G20KT P6SM FEW250
     FM220000 31010KT P6SM SCT250=



000
FTUS42 KCAE 210244 AAA
TAFAGS
TAF AMD
KAGS 210244Z 2103/2124 00000KT P6SM SCT250
      TEMPO 2103/2106 3SM BR
     FM210700 VRB03KT P6SM FEW050 BKN150
     FM211300 28010KT P6SM SCT250
     FM211600 29012G20KT P6SM SKC=



000
FTUS42 KCAE 210244 AAA
TAFDNL
TAF AMD
KDNL 210244Z 2103/2124 23003KT P6SM SCT150
     FM210700 25003KT P6SM FEW050 BKN150
     FM211300 29010KT P6SM SCT250
     FM211600 30010G18KT P6SM SKC=



000
FTUS42 KCAE 210244 AAB
TAFCAE
TAF AMD
KCAE 210244Z 2103/2124 VRB03KT P6SM SCT250
     FM210700 23003KT P6SM SCT060 BKN150
     FM211300 27008KT P6SM SCT250
     FM211600 28010G20KT P6SM FEW250=



000
FTUS42 KCAE 210244 AAA
TAFCUB
TAF AMD
KCUB 210244Z 2103/2124 00000KT P6SM SCT250
     FM210600 VRB03KT P6SM SCT060 BKN150
     FM211300 26008KT P6SM SCT250
     FM211600 28008G18KT P6SM FEW250=



000
FTUS42 KCAE 210244 AAB
TAFOGB
TAF AMD
KOGB 210244Z 2103/2124 22004KT P6SM SKC
     FM210800 VRB03KT 4SM BR SCT150
     FM211300 29009KT P6SM SCT250
     FM211600 28012G20KT P6SM SKC=



000
FTUS42 KCAE 210007 AAA
TAFOGB
TAF AMD
KOGB 210007Z 2100/2124 VRB05KT P6SM VCSH FEW025 BKN060
      TEMPO 2100/2102 4SM SHRA SCT025 OVC050
     FM210200 VRB03KT P6SM BKN100
     FM210800 VRB03KT 4SM BR BKN150
     FM211300 29009KT P6SM SCT250
     FM211600 28012G20KT P6SM SKC=



000
FTUS42 KCAE 210007 AAA
TAFOGB
TAF AMD
KOGB 210007Z 2100/2124 VRB05KT P6SM VCSH FEW025 BKN060
      TEMPO 2100/2102 4SM SHRA SCT025 OVC050
     FM210200 VRB03KT P6SM BKN100
     FM210800 VRB03KT 4SM BR BKN150
     FM211300 29009KT P6SM SCT250
     FM211600 28012G20KT P6SM SKC=



000
FTUS42 KCAE 202349 CCA
TAFOGB
TAF COR
KOGB 202349Z 2100/2124 VRB05KT P6SM VCSH FEW025 BKN050
      TEMPO 2100/2101 2SM TSRA SCT025CB
     FM210200 VRB03KT P6SM SCT150
     FM210800 VRB03KT 4SM BR BKN150
     FM211300 29009KT P6SM SCT250
     FM211600 28012G20KT P6SM SKC=



000
FTUS42 KCAE 202349 CCA
TAFOGB
TAF COR
KOGB 202349Z 2100/2124 VRB05KT P6SM VCSH FEW025 BKN050
      TEMPO 2100/2101 2SM TSRA SCT025CB
     FM210200 VRB03KT P6SM SCT150
     FM210800 VRB03KT 4SM BR BKN150
     FM211300 29009KT P6SM SCT250
     FM211600 28012G20KT P6SM SKC=



000
FTUS42 KCAE 202333
TAFDNL
TAF
KDNL 202333Z 2100/2124 30008KT P6SM SCT060
     FM211300 29010KT P6SM SCT250
     FM211600 30010G18KT P6SM SKC=



000
FTUS42 KCAE 202333
TAFAGS
TAF
KAGS 202333Z 2100/2124 VRB05KT P6SM SCT060
     FM211300 28010KT P6SM SCT250
     FM211600 29012G20KT P6SM SKC=



000
FTUS42 KCAE 202333
TAFCAE
TAF
KCAE 202333Z 2100/2124 VRB06KT P6SM BKN100
     FM210200 VRB04KT P6SM SCT250
     FM211300 27008KT P6SM SCT250
     FM211600 28010G20KT P6SM FEW250=



000
FTUS42 KCAE 202333
TAFAGS
TAF
KAGS 202333Z 2100/2124 VRB05KT P6SM SCT060
     FM211300 28010KT P6SM SCT250
     FM211600 29012G20KT P6SM SKC=



000
FTUS42 KCAE 202333
TAFDNL
TAF
KDNL 202333Z 2100/2124 30008KT P6SM SCT060
     FM211300 29010KT P6SM SCT250
     FM211600 30010G18KT P6SM SKC=



000
FTUS42 KCAE 202333
TAFCUB
TAF
KCUB 202333Z 2100/2124 VRB05KT P6SM SCT050 BKN080
     FM210200 VRB03KT P6SM SCT250
     FM211300 26008KT P6SM SCT250
     FM211600 28008G18KT P6SM FEW250=



000
FTUS42 KCAE 202333
TAFOGB
TAF
KOGB 202333Z 2100/2124 VRB05KT P6SM VCSH FEW025 BKN050
      TEMPO 2100/2102 3SM SHRA
     FM210200 VRB03KT P6SM SCT150
     FM210800 VRB03KT 4SM BR BKN150
     FM211300 29009KT P6SM SCT250
     FM211600 28012G20KT P6SM SKC=



000
FTUS42 KCAE 202333
TAFCAE
TAF
KCAE 202333Z 2100/2124 VRB06KT P6SM BKN100
     FM210200 VRB04KT P6SM SCT250
     FM211300 27008KT P6SM SCT250
     FM211600 28010G20KT P6SM FEW250=



000
FTUS42 KCAE 202333
TAFOGB
TAF
KOGB 202333Z 2100/2124 VRB05KT P6SM VCSH FEW025 BKN050
      TEMPO 2100/2102 3SM SHRA
     FM210200 VRB03KT P6SM SCT150
     FM210800 VRB03KT 4SM BR BKN150
     FM211300 29009KT P6SM SCT250
     FM211600 28012G20KT P6SM SKC=



000
FTUS42 KCAE 202333
TAFCUB
TAF
KCUB 202333Z 2100/2124 VRB05KT P6SM SCT050 BKN080
     FM210200 VRB03KT P6SM SCT250
     FM211300 26008KT P6SM SCT250
     FM211600 28008G18KT P6SM FEW250=



000
FTUS42 KCAE 202139 AAB
TAFOGB
TAF AMD
KOGB 202139Z 2022/2118 12008KT P6SM VCSH SCT060 BKN080
      TEMPO 2022/2023 3SM SHRA SCT030 BKN060
     FM202300 VRB03KT P6SM SCT150
     FM210800 VRB03KT 4SM BR SCT250
     FM211300 29009G16KT P6SM SKC=



000
FTUS42 KCAE 202139 AAB
TAFOGB
TAF AMD
KOGB 202139Z 2022/2118 12008KT P6SM VCSH SCT060 BKN080
      TEMPO 2022/2023 3SM SHRA SCT030 BKN060
     FM202300 VRB03KT P6SM SCT150
     FM210800 VRB03KT 4SM BR SCT250
     FM211300 29009G16KT P6SM SKC=



000
FTUS42 KCAE 202137 AAC
TAFAGS
TAF AMD
KAGS 202137Z 2022/2118 VRB06KT 3SM SHRA SCT030 BKN060
     FM202215 VRB05KT P6SM SCT060
     FM210800 25005KT P6SM SCT250
     FM211300 29012G18KT P6SM SKC=



000
FTUS42 KCAE 202137 AAC
TAFAGS
TAF AMD
KAGS 202137Z 2022/2118 VRB06KT 3SM SHRA SCT030 BKN060
     FM202215 VRB05KT P6SM SCT060
     FM210800 25005KT P6SM SCT250
     FM211300 29012G18KT P6SM SKC=



000
FTUS42 KCAE 202050 AAA
TAFOGB
TAF AMD
KOGB 202050Z 2021/2118 12008KT P6SM VCSH SCT060 BKN080
     FM202300 VRB03KT P6SM SCT150
     FM210800 VRB03KT 4SM BR SCT250
     FM211300 29009G16KT P6SM SKC=



000
FTUS42 KCAE 202050 AAA
TAFCUB
TAF AMD
KCUB 202050Z 2021/2118 VRB04KT P6SM SCT060 SCT080
     FM211500 28009G18KT P6SM FEW250=



000
FTUS42 KCAE 202050 AAA
TAFDNL
TAF AMD
KDNL 202050Z 2021/2118 30008KT P6SM SCT060
     FM210100 28004KT P6SM SCT150
     FM211600 30009G16KT P6SM SKC=



000
FTUS42 KCAE 202050 AAB
TAFAGS
TAF AMD
KAGS 202050Z 2021/2118 VRB05KT P6SM -SHRA BKN060 OVC090
     FM202130 VRB05KT P6SM SCT060
     FM210800 25005KT P6SM SCT250
     FM211300 29012G18KT P6SM SKC=



000
FTUS42 KCAE 202050 AAB
TAFCAE
TAF AMD
KCAE 202050Z 2021/2118 VRB04KT P6SM SCT060 SCT080
     FM211500 28009G18KT P6SM FEW250=



000
FTUS42 KCAE 202009 AAA
TAFAGS
TAF AMD
KAGS 202009Z 2020/2118 29005KT 4SM SHRA BKN040 OVC080
      TEMPO 2020/2021 P6SM SCT040 BKN080
     FM202100 29005KT P6SM VCSH SCT040 SCT080
     FM210000 VRB03KT P6SM BKN150
     FM210800 25005KT P6SM SCT250
     FM211300 29012G18KT P6SM SKC=



000
FTUS42 KCAE 202009 AAA
TAFAGS
TAF AMD
KAGS 202009Z 2020/2118 29005KT 4SM SHRA BKN040 OVC080
      TEMPO 2020/2021 P6SM SCT040 BKN080
     FM202100 29005KT P6SM VCSH SCT040 SCT080
     FM210000 VRB03KT P6SM BKN150
     FM210800 25005KT P6SM SCT250
     FM211300 29012G18KT P6SM SKC=



000
FTUS42 KCAE 201726
TAFCUB
TAF
KCUB 201726Z 2018/2118 VRB05KT P6SM VCSH SCT050
     FM210000 VRB03KT P6SM SCT250
     FM211500 28009G18KT P6SM FEW250=



000
FTUS42 KCAE 201726
TAFAGS
TAF
KAGS 201726Z 2018/2118 29005KT P6SM VCSH SCT040
     FM210000 VRB03KT P6SM BKN150
     FM210800 25005KT P6SM SCT250
     FM211300 29012G18KT P6SM SKC=



000
FTUS42 KCAE 201726
TAFCAE
TAF
KCAE 201726Z 2018/2118 VRB05KT P6SM VCSH SCT040
     FM210000 VRB03KT P6SM SCT250
     FM211500 28009G18KT P6SM FEW250=



000
FTUS42 KCAE 201726
TAFOGB
TAF
KOGB 201726Z 2018/2118 VRB05KT P6SM VCSH BKN050
      TEMPO 2018/2021 23015KT 3SM -TSRA BKN035CB
     FM202300 VRB03KT P6SM BKN150
     FM210800 VRB03KT 4SM BR SCT250
     FM211300 29009G16KT P6SM SKC=



000
FTUS42 KCAE 201726
TAFDNL
TAF
KDNL 201726Z 2018/2118 VRB05KT P6SM SCT040 BKN120
     FM210000 28005KT P6SM BKN150
     FM211600 30009G16KT P6SM SKC=



000
FTUS42 KCAE 201726
TAFCUB
TAF
KCUB 201726Z 2018/2118 VRB05KT P6SM VCSH SCT050
     FM210000 VRB03KT P6SM SCT250
     FM211500 28009G18KT P6SM FEW250=



000
FTUS42 KCAE 201726
TAFAGS
TAF
KAGS 201726Z 2018/2118 29005KT P6SM VCSH SCT040
     FM210000 VRB03KT P6SM BKN150
     FM210800 25005KT P6SM SCT250
     FM211300 29012G18KT P6SM SKC=



000
FTUS42 KCAE 201726
TAFCAE
TAF
KCAE 201726Z 2018/2118 VRB05KT P6SM VCSH SCT040
     FM210000 VRB03KT P6SM SCT250
     FM211500 28009G18KT P6SM FEW250=



000
FTUS42 KCAE 201726
TAFOGB
TAF
KOGB 201726Z 2018/2118 VRB05KT P6SM VCSH BKN050
      TEMPO 2018/2021 23015KT 3SM -TSRA BKN035CB
     FM202300 VRB03KT P6SM BKN150
     FM210800 VRB03KT 4SM BR SCT250
     FM211300 29009G16KT P6SM SKC=



000
FTUS42 KCAE 201726
TAFDNL
TAF
KDNL 201726Z 2018/2118 VRB05KT P6SM SCT040 BKN120
     FM210000 28005KT P6SM BKN150
     FM211600 30009G16KT P6SM SKC=



000
FTUS42 KCAE 201518 AAA
TAFCUB
TAF AMD
KCUB 201518Z 2015/2112 VRB05KT P6SM SCT040
     FM210400 00000KT P6SM SCT250=



000
FTUS42 KCAE 201518 AAA
TAFDNL
TAF AMD
KDNL 201518Z 2015/2112 VRB05KT P6SM SCT040
     FM201700 VRB05KT P6SM VCSH SCT040 BKN120
     FM202300 VRB03KT P6SM BKN150=



000
FTUS42 KCAE 201518 AAA
TAFCAE
TAF AMD
KCAE 201518Z 2015/2112 VRB05KT P6SM SCT040
     FM210400 VRB03KT P6SM SCT250=



000
FTUS42 KCAE 201518 AAA
TAFOGB
TAF AMD
KOGB 201518Z 2015/2112 VRB05KT P6SM SCT040
     FM201700 VRB05KT P6SM VCSH SCT040
     FM202300 VRB03KT P6SM BKN150
     FM210800 00000KT 4SM BR SCT250=



000
FTUS42 KCAE 201518 AAA
TAFAGS
TAF AMD
KAGS 201518Z 2015/2112 VRB05KT P6SM SCT040
     FM201700 29005KT P6SM VCSH SCT040 BKN120
     FM202300 VRB03KT P6SM BKN150
     FM210800 00000KT 4SM BR SCT250=



000
FTUS42 KCAE 201518 AAA
TAFCAE
TAF AMD
KCAE 201518Z 2015/2112 VRB05KT P6SM SCT040
     FM210400 VRB03KT P6SM SCT250=



000
FTUS42 KCAE 201518 AAA
TAFOGB
TAF AMD
KOGB 201518Z 2015/2112 VRB05KT P6SM SCT040
     FM201700 VRB05KT P6SM VCSH SCT040
     FM202300 VRB03KT P6SM BKN150
     FM210800 00000KT 4SM BR SCT250=



000
FTUS42 KCAE 201518 AAA
TAFAGS
TAF AMD
KAGS 201518Z 2015/2112 VRB05KT P6SM SCT040
     FM201700 29005KT P6SM VCSH SCT040 BKN120
     FM202300 VRB03KT P6SM BKN150
     FM210800 00000KT 4SM BR SCT250=



000
FTUS42 KCAE 201518 AAA
TAFCUB
TAF AMD
KCUB 201518Z 2015/2112 VRB05KT P6SM SCT040
     FM210400 00000KT P6SM SCT250=



000
FTUS42 KCAE 201518 AAA
TAFDNL
TAF AMD
KDNL 201518Z 2015/2112 VRB05KT P6SM SCT040
     FM201700 VRB05KT P6SM VCSH SCT040 BKN120
     FM202300 VRB03KT P6SM BKN150=



000
FTUS42 KCAE 201127
TAFCAE
TAF
KCAE 201127Z 2012/2112 03004KT P6SM FEW250
     FM201600 09006KT P6SM SCT040
     FM210400 VRB03KT P6SM SCT250=



000
FTUS42 KCAE 201127
TAFDNL
TAF
KDNL 201127Z 2012/2112 33004KT P6SM FEW250
     FM201700 VRB05KT P6SM VCSH SCT040 BKN120
     FM202300 VRB03KT P6SM BKN150=



000
FTUS42 KCAE 201127
TAFOGB
TAF
KOGB 201127Z 2012/2112 VRB03KT P6SM FEW250
     FM201700 VRB05KT P6SM VCSH SCT040
     FM202300 VRB03KT P6SM BKN150
     FM210800 00000KT 4SM BR SCT250=



000
FTUS42 KCAE 201127
TAFCUB
TAF
KCUB 201127Z 2012/2112 00000KT P6SM FEW250
     FM201500 VRB04KT P6SM SCT040
     FM210400 00000KT P6SM SCT250=



000
FTUS42 KCAE 201127
TAFAGS
TAF
KAGS 201127Z 2012/2112 VRB03KT P6SM FEW250
     FM201700 29005KT P6SM VCSH SCT040 BKN120
     FM202300 VRB03KT P6SM BKN150
     FM210800 00000KT 4SM BR SCT250=



000
FTUS42 KCAE 200946 AAB
TAFAGS
TAF AMD
KAGS 200946Z 2010/2106 00000KT 4SM BR FEW100
      TEMPO 2010/2012 1SM BR
     FM201200 VRB03KT P6SM FEW250
     FM201700 29005KT P6SM VCSH SCT040 BKN120
     FM202300 VRB03KT P6SM BKN150=



000
FTUS42 KCAE 200852 AAA
TAFCUB
TAF AMD
KCUB 200852Z 2009/2106 00000KT P6SM FEW100
     FM201500 VRB04KT P6SM SCT040 BKN250=



000
FTUS42 KCAE 200852 AAA
TAFOGB
TAF AMD
KOGB 200852Z 2009/2106 VRB03KT P6SM FEW100
     FM201700 VRB05KT P6SM VCSH SCT040 BKN120
     FM202300 VRB03KT P6SM BKN150=



000
FTUS42 KCAE 200852 AAA
TAFCAE
TAF AMD
KCAE 200852Z 2009/2106 VRB03KT P6SM FEW100
     FM201300 05004KT P6SM SCT250
     FM201600 09006KT P6SM SCT040 BKN250=



000
FTUS42 KCAE 200852 AAA
TAFAGS
TAF AMD
KAGS 200852Z 2009/2106 00000KT P6SM FEW100
     FM201700 29005KT P6SM VCSH SCT040 BKN120
     FM202300 VRB03KT P6SM BKN150=



000
FTUS42 KCAE 200852 AAA
TAFDNL
TAF AMD
KDNL 200852Z 2009/2106 VRB03KT P6SM FEW100
     FM201700 29005KT P6SM VCSH SCT040 BKN120
     FM202300 VRB03KT P6SM BKN150=



000
FTUS42 KCAE 200531
TAFCUB
TAF
KCUB 200531Z 2006/2106 00000KT P6SM SCT100
     FM201500 VRB04KT P6SM SCT040 BKN250=



000
FTUS42 KCAE 200531
TAFOGB
TAF
KOGB 200531Z 2006/2106 VRB03KT P6SM SCT100
     FM200800 00000KT 4SM BR SCT250
     FM201200 VRB03KT P6SM SCT250
     FM201700 VRB05KT P6SM VCSH SCT040 BKN120
     FM202300 VRB03KT P6SM BKN150=



000
FTUS42 KCAE 200531
TAFAGS
TAF
KAGS 200531Z 2006/2106 00000KT P6SM SCT100
      TEMPO 2008/2012 4SM BR
     FM201700 29005KT P6SM VCSH SCT040 BKN120
     FM202300 VRB03KT P6SM BKN150=



000
FTUS42 KCAE 200531
TAFCAE
TAF
KCAE 200531Z 2006/2106 VRB03KT P6SM SCT100
     FM201300 05004KT P6SM SCT250
     FM201600 09006KT P6SM SCT040 BKN250=



000
FTUS42 KCAE 200531
TAFDNL
TAF
KDNL 200531Z 2006/2106 VRB03KT P6SM SCT100
     FM201700 29005KT P6SM VCSH SCT040 BKN120
     FM202300 VRB03KT P6SM BKN150=



    US Dept of Commerce
    National Oceanic and Atmospheric Administration
    National Weather Service
    1325 East West Highway
    Silver Spring, MD 20910
    Page Author: NWS Internet Services Team
Disclaimer
Information Quality
Credits
Glossary
Privacy Policy
Freedom of Information Act (FOIA)
About Us
Career Opportunities